Nickerson, Kansas
Current Conditions -  °F | °C
As of 2:52 AM on Monday 24 Nov 2014 (Local Time) from KHUT Reporting Station
Clear Clear  
Wind Chill: 25°   Ceiling: Unl
Heat Index: 33°   Visibility: 10mi
Dew Point: 21°   Wind: 9mph
Humidity: 61%   Direction: 300°WNW
Pressure: 29.74"   Gusts: NA
Location:  38.15°N, 98.08°W
Report Text: KHUT 240852Z AUTO 30008KT 10SM CLR 01/M06 A2974 RMK AO2 SLP071 T00061061 51012
Loading
Personal Weather Stations






























Interactive Weather Map New forecast layout! Learn more

10-Day Weather Forecast

Advertisements
Track Severe Weather on mobile